Time;durP1;ratioP1;P1;durP2;ratioP2;P2;SDS_P1;SDS_P2;PMS_P1;PMS_P2;Temp;Humidity;BMP_temperature;BMP_pressure;BME280_temperature;BME280_humidity;BME280_pressure;Samples;Min_cycle;Max_cycle;Signal;HPM_P1;HPM_P2
2021/06/13 00:01:10;;;;;;;14.50;8.80;;;;;;;19.00;81.44;99743.56;5023383;28;20041;-64
2021/06/13 00:03:36;;;;;;;16.23;9.25;;;;;;;19.08;81.59;99742.47;5010957;28;20049;-64
2021/06/13 00:06:02;;;;;;;11.25;8.07;;;;;;;18.92;81.37;99749.19;5014857;28;20038;-65
2021/06/13 00:08:28;;;;;;;12.40;7.97;;;;;;;18.83;81.65;99734.38;5013155;28;20072;-65
2021/06/13 00:10:53;;;;;;;9.02;7.30;;;;;;;18.71;81.15;99738.75;5008797;28;20333;-65
2021/06/13 00:13:19;;;;;;;9.25;7.45;;;;;;;18.64;81.21;99720.03;5008106;28;20227;-65
2021/06/13 00:15:45;;;;;;;10.02;6.82;;;;;;;18.49;80.76;99746.28;5017841;28;20085;-65
2021/06/13 00:18:10;;;;;;;11.10;5.97;;;;;;;18.38;81.02;99746.94;5019430;28;20034;-64
2021/06/13 00:20:36;;;;;;;9.68;5.75;;;;;;;18.33;80.28;99736.84;5011478;28;20030;-65
2021/06/13 00:23:01;;;;;;;14.25;6.05;;;;;;;18.40;80.58;99744.88;5008280;28;20097;-65
2021/06/13 00:25:27;;;;;;;11.65;6.63;;;;;;;18.46;80.45;99742.16;5010378;28;20073;-65
2021/06/13 00:27:52;;;;;;;8.52;5.93;;;;;;;18.63;79.49;99741.69;5018469;28;20471;-64
2021/06/13 00:30:18;;;;;;;12.60;6.72;;;;;;;18.55;79.97;99740.06;5016124;28;20188;-64
2021/06/13 00:32:44;;;;;;;10.93;6.60;;;;;;;18.37;80.43;99731.88;5003645;28;20066;-64
2021/06/13 00:35:10;;;;;;;15.63;6.47;;;;;;;18.48;79.52;99740.09;5002893;28;20251;-64
2021/06/13 00:37:35;;;;;;;11.65;5.40;;;;;;;18.46;79.21;99733.28;5003058;28;20321;-65
2021/06/13 00:40:02;;;;;;;14.50;5.68;;;;;;;18.60;77.90;99726.00;5003973;28;20026;-64
2021/06/13 00:42:27;;;;;;;15.18;5.18;;;;;;;18.47;78.42;99710.81;5002625;28;20042;-64
2021/06/13 00:44:53;;;;;;;9.32;4.68;;;;;;;18.47;78.16;99724.22;5005791;28;20025;-65
2021/06/13 00:47:18;;;;;;;11.15;4.75;;;;;;;18.46;77.76;99726.06;5013473;28;20382;-65
2021/06/13 00:49:44;;;;;;;8.10;4.90;;;;;;;18.53;77.27;99720.66;5011420;28;20034;-65
2021/06/13 00:52:09;;;;;;;12.68;5.50;;;;;;;18.54;76.72;99711.59;5012878;28;20030;-64
2021/06/13 00:54:35;;;;;;;9.88;5.15;;;;;;;18.51;76.82;99723.56;5005719;28;20212;-64
2021/06/13 00:57:00;;;;;;;14.82;5.15;;;;;;;18.47;77.15;99722.34;5002465;28;20034;-64
2021/06/13 00:59:26;;;;;;;13.10;5.38;;;;;;;18.37;77.06;99726.53;5006555;28;20027;-65
2021/06/13 01:01:51;;;;;;;8.07;5.00;;;;;;;18.14;77.07;99722.50;5005967;28;20034;-64
2021/06/13 01:04:17;;;;;;;12.43;5.45;;;;;;;18.07;77.90;99724.38;5002792;28;20034;-64
2021/06/13 01:07:08;;;;;;;14.35;5.78;;;;;;;18.13;77.89;99717.34;5002240;28;20105;-64
2021/06/13 01:09:41;;;;;;;16.00;6.55;;;;;;;18.12;77.98;99716.53;5004159;28;20058;-64
2021/06/13 01:12:15;;;;;;;15.75;6.90;;;;;;;18.01;78.17;99711.81;5010992;28;20029;-64
2021/06/13 01:15:01;;;;;;;;;;;;;;;18.23;77.53;99708.84;5022562;28;20042;-64
2021/06/13 01:17:40;;;;;;;22.80;6.80;;;;;;;18.14;77.22;99717.13;5019978;28;19941;-65
2021/06/13 01:20:25;;;;;;;30.33;6.32;;;;;;;18.17;77.76;99718.56;5012572;28;20030;-65
2021/06/13 01:23:28;;;;;;;15.35;5.90;;;;;;;18.22;76.57;99720.59;5004512;28;20192;-64
2021/06/13 01:26:02;;;;;;;9.10;5.07;;;;;;;18.21;75.77;99714.44;5014620;28;20345;-64
2021/06/13 01:28:46;;;;;;;;;;;;;;;18.22;76.06;99715.25;5004127;28;20053;-65
2021/06/13 01:31:12;;;;;;;12.73;4.78;;;;;;;18.09;76.53;99708.09;5001111;28;19918;-65
2021/06/13 01:33:39;;;;;;;12.20;4.63;;;;;;;18.12;76.16;99711.16;5011080;28;20033;-64
2021/06/13 01:36:07;;;;;;;11.93;4.95;;;;;;;17.99;76.65;99699.66;5001802;28;20026;-64
2021/06/13 01:38:33;;;;;;;12.02;4.75;;;;;;;17.96;77.61;99714.31;5004461;28;20084;-64
2021/06/13 01:41:08;;;;;;;13.07;5.03;;;;;;;18.02;77.66;99709.97;5004393;28;20050;-64
2021/06/13 01:43:35;;;;;;;10.90;5.15;;;;;;;17.96;77.91;99705.44;5015312;28;20109;-64
2021/06/13 01:46:01;;;;;;;12.75;5.10;;;;;;;17.97;78.28;99715.13;5021364;28;20319;-64
2021/06/13 01:48:27;;;;;;;15.18;5.53;;;;;;;17.76;77.28;99711.69;5016465;28;20065;-64
2021/06/13 01:50:54;;;;;;;19.85;5.80;;;;;;;17.39;77.77;99715.78;5007262;28;20314;-64
2021/06/13 01:53:20;;;;;;;17.52;5.38;;;;;;;17.38;77.54;99711.47;5010483;28;20335;-64
2021/06/13 01:55:49;;;;;;;17.45;5.45;;;;;;;16.94;79.47;99697.88;5012209;28;20045;-64
2021/06/13 01:58:18;;;;;;;24.15;5.15;;;;;;;17.08;79.15;99708.38;5016683;28;20105;-65
2021/06/13 02:00:46;;;;;;;15.68;5.72;;;;;;;17.05;79.28;99687.38;5013196;28;20038;-64
2021/06/13 02:03:12;;;;;;;14.23;5.70;;;;;;;17.03;80.16;99704.66;5014586;28;20036;-64
2021/06/13 02:05:40;;;;;;;16.45;5.45;;;;;;;16.92;80.21;99704.25;5006713;28;20025;-64
2021/06/13 02:08:06;;;;;;;18.27;4.93;;;;;;;17.01;80.04;99707.53;5013979;28;20041;-64
2021/06/13 02:10:33;;;;;;;18.15;5.25;;;;;;;17.07;80.23;99704.06;5010886;28;20026;-65
2021/06/13 02:13:00;;;;;;;20.63;5.57;;;;;;;17.12;80.03;99698.09;5006147;28;20034;-65
2021/06/13 02:15:28;;;;;;;15.27;4.70;;;;;;;17.11;80.30;99697.25;5009582;28;20116;-64
2021/06/13 02:17:54;;;;;;;16.77;5.65;;;;;;;17.08;79.02;99672.78;5008544;28;20038;-65
2021/06/13 02:20:23;;;;;;;14.30;5.35;;;;;;;17.16;79.04;99696.66;5003597;28;20026;-65
2021/06/13 02:22:51;;;;;;;15.93;5.18;;;;;;;17.10;79.11;99694.78;5015302;28;20080;-65
2021/06/13 02:25:21;;;;;;;17.50;5.78;;;;;;;17.14;79.25;99690.69;5007385;28;20105;-65
2021/06/13 02:27:50;;;;;;;17.13;5.47;;;;;;;17.31;78.46;99686.56;5011916;28;20364;-65
2021/06/13 02:30:18;;;;;;;16.38;5.65;;;;;;;17.21;78.16;99686.97;5010674;28;20030;-64
2021/06/13 02:32:44;;;;;;;12.43;5.32;;;;;;;17.21;78.41;99680.78;5006490;28;20030;-65
2021/06/13 02:35:11;;;;;;;17.70;5.40;;;;;;;17.10;78.67;99689.44;5001131;28;20313;-64
2021/06/13 02:37:40;;;;;;;11.75;4.93;;;;;;;17.10;79.26;99690.25;5017720;28;20041;-65
2021/06/13 02:40:08;;;;;;;12.85;4.72;;;;;;;17.24;78.65;99694.59;4984916;28;20030;-65
2021/06/13 02:42:33;;;;;;;15.18;4.55;;;;;;;17.27;78.02;99692.53;5001592;28;20049;-64
2021/06/13 02:44:59;;;;;;;11.07;4.85;;;;;;;17.34;77.22;99686.13;5006006;28;20033;-65
2021/06/13 02:47:24;;;;;;;10.63;4.75;;;;;;;17.02;77.98;99677.09;5018720;28;20100;-64
2021/06/13 02:49:49;;;;;;;14.77;5.63;;;;;;;16.87;78.58;99679.97;5024961;28;20064;-65
2021/06/13 02:52:26;;;;;;;11.35;4.72;;;;;;;17.07;78.24;99682.66;5020737;28;20034;-65
2021/06/13 02:54:58;;;;;;;15.40;4.72;;;;;;;17.20;77.83;99679.97;5013388;28;20366;-65
2021/06/13 02:57:31;;;;;;;11.80;5.05;;;;;;;17.15;77.16;99677.09;5013214;28;20248;-64
2021/06/13 03:00:00;;;;;;;14.93;4.78;;;;;;;16.98;78.12;99680.38;5016263;28;20026;-64
2021/06/13 03:02:28;;;;;;;15.90;4.45;;;;;;;17.15;77.64;99677.09;5016966;28;20034;-64
2021/06/13 03:04:57;;;;;;;12.70;4.75;;;;;;;17.21;77.29;99664.75;5011828;28;20022;-64
2021/06/13 03:07:24;;;;;;;11.10;4.28;;;;;;;17.32;76.89;99668.66;5012581;28;20267;-64
2021/06/13 03:09:51;;;;;;;13.77;5.00;;;;;;;17.51;75.76;99673.16;5016785;28;20022;-64
2021/06/13 03:12:17;;;;;;;11.32;4.60;;;;;;;17.28;76.85;99670.91;5018903;28;20227;-65
2021/06/13 03:14:45;;;;;;;12.02;4.72;;;;;;;17.33;76.61;99676.47;5008364;28;20399;-64
2021/06/13 03:17:12;;;;;;;18.15;4.95;;;;;;;17.39;76.41;99670.28;4990331;28;20037;-64
2021/06/13 03:19:41;;;;;;;12.27;4.38;;;;;;;17.47;76.28;99669.25;5010960;28;20212;-64
2021/06/13 03:22:08;;;;;;;13.05;5.13;;;;;;;17.26;76.55;99667.63;5021173;28;20089;-65
2021/06/13 03:24:37;;;;;;;12.07;5.13;;;;;;;17.35;76.36;99663.69;5024056;28;20215;-64
2021/06/13 03:27:05;;;;;;;15.73;4.95;;;;;;;17.42;75.73;99666.38;5024499;28;20215;-64
2021/06/13 03:29:31;;;;;;;14.15;5.18;;;;;;;17.26;76.36;99659.59;5027381;28;20302;-64
2021/06/13 03:31:58;;;;;;;19.92;5.50;;;;;;;17.26;76.83;99664.13;5037582;28;20258;-64
2021/06/13 03:34:24;;;;;;;14.10;5.40;;;;;;;17.39;76.72;99651.53;5038767;28;20029;-64
2021/06/13 03:36:50;;;;;;;11.00;5.85;;;;;;;17.43;76.17;99643.91;5040793;28;20034;-64
2021/06/13 03:39:17;;;;;;;11.75;4.57;;;;;;;17.54;76.56;99651.31;5015803;28;20018;-65
2021/06/13 03:41:45;;;;;;;12.43;4.82;;;;;;;17.56;75.69;99652.75;5012496;28;20365;-65
2021/06/13 03:44:11;;;;;;;12.18;5.18;;;;;;;17.59;75.94;99654.19;5010572;28;20260;-64
2021/06/13 03:46:37;;;;;;;11.75;5.15;;;;;;;17.57;76.60;99650.91;5014587;28;20101;-65
2021/06/13 03:49:05;;;;;;;12.05;5.13;;;;;;;17.40;77.71;99655.88;5016116;28;20025;-65
2021/06/13 03:51:31;;;;;;;12.43;5.28;;;;;;;17.43;77.15;99655.44;5010284;28;20061;-65
2021/06/13 03:53:57;;;;;;;17.40;4.82;;;;;;;17.39;77.25;99626.63;5010364;28;20026;-64
2021/06/13 03:56:28;;;;;;;12.63;5.68;;;;;;;17.65;77.18;99652.53;5006969;28;20091;-65
2021/06/13 03:58:54;;;;;;;11.60;5.57;;;;;;;17.74;76.92;99656.69;5010244;28;20376;-65
2021/06/13 04:01:21;;;;;;;14.88;4.93;;;;;;;17.77;76.86;99658.94;5010194;28;20088;-65
2021/06/13 04:03:49;;;;;;;16.40;5.50;;;;;;;17.76;77.04;99652.75;5004774;28;20093;-64
2021/06/13 04:06:15;;;;;;;17.75;5.93;;;;;;;17.85;77.18;99645.31;5003290;28;20136;-64
2021/06/13 04:08:41;;;;;;;11.05;5.88;;;;;;;18.03;76.92;99642.75;5009088;28;20038;-65
2021/06/13 04:11:09;;;;;;;13.02;5.55;;;;;;;18.24;74.90;99647.00;5014667;28;20036;-64
2021/06/13 04:13:35;;;;;;;17.33;5.90;;;;;;;17.94;76.30;99648.56;5013975;28;20065;-65
2021/06/13 04:16:08;;;;;;;14.60;6.00;;;;;;;18.17;76.21;99648.88;5007778;28;20045;-65
2021/06/13 04:18:36;;;;;;;15.30;5.00;;;;;;;18.48;75.12;99658.81;5021320;28;20238;-65
2021/06/13 04:21:04;;;;;;;10.90;5.47;;;;;;;18.89;73.33;99649.53;5023293;28;20048;-65
2021/06/13 04:23:30;;;;;;;15.07;5.05;;;;;;;19.38;71.58;99651.38;5014575;28;20059;-65
2021/06/13 04:25:57;;;;;;;15.95;4.95;;;;;;;19.67;70.11;99655.25;5012725;28;20105;-65
2021/06/13 04:28:22;;;;;;;88.88;38.53;;;;;;;19.91;68.37;99658.94;5012348;28;20240;-65
2021/06/13 04:31:03;;;;;;;19.20;6.65;;;;;;;20.09;68.33;99657.03;5015954;28;20026;-65
2021/06/13 04:33:33;;;;;;;22.45;10.75;;;;;;;20.32;67.80;99664.41;5004472;28;20057;-65
2021/06/13 04:35:59;;;;;;;20.67;5.47;;;;;;;20.54;66.14;99661.25;5020346;28;20041;-65
2021/06/13 04:38:25;;;;;;;17.05;5.38;;;;;;;20.83;65.33;99659.59;5022890;28;20080;-65
2021/06/13 04:40:51;;;;;;;16.42;5.05;;;;;;;20.86;65.33;99668.03;5014859;28;20295;-65
2021/06/13 04:43:16;;;;;;;10.48;4.88;;;;;;;20.95;65.25;99641.59;5196713;22;20133;-64
2021/06/13 04:45:42;;;;;;;21.15;8.00;;;;;;;21.37;64.63;99671.16;5019718;28;20042;-65
2021/06/13 04:48:07;;;;;;;12.93;4.78;;;;;;;21.43;64.48;99670.22;5023660;28;20033;-65
2021/06/13 04:50:34;;;;;;;11.93;4.55;;;;;;;21.46;63.65;99672.44;5023769;28;20319;-65
2021/06/13 04:53:02;;;;;;;11.02;5.75;;;;;;;21.64;63.92;99667.75;5023969;28;20026;-65
2021/06/13 04:55:46;;;;;;;11.65;5.70;;;;;;;21.68;64.48;99646.53;5023669;28;20219;-65
2021/06/13 04:58:19;;;;;;;8.32;4.60;;;;;;;21.97;64.56;99655.53;5006985;28;20061;-65
2021/06/13 05:00:45;;;;;;;6.97;5.00;;;;;;;22.46;63.09;99645.19;5006043;28;20270;-65
2021/06/13 05:03:10;;;;;;;9.18;4.70;;;;;;;22.60;60.13;99641.13;5023832;28;20025;-65
2021/06/13 05:05:36;;;;;;;7.13;4.40;;;;;;;22.77;61.16;99638.44;5023540;28;20041;-65
2021/06/13 05:08:03;;;;;;;8.02;4.03;;;;;;;23.22;59.75;99631.16;5023211;28;20034;-65
2021/06/13 05:10:29;;;;;;;6.88;3.90;;;;;;;23.65;58.60;99643.13;5023410;28;20076;-65
2021/06/13 05:12:54;;;;;;;10.55;3.95;;;;;;;24.14;56.48;99633.22;5023159;28;20034;-65
2021/06/13 05:15:21;;;;;;;9.82;4.38;;;;;;;24.56;55.55;99632.63;5023405;28;20026;-65
2021/06/13 05:17:47;;;;;;;4.00;3.40;;;;;;;24.49;54.10;99637.41;5023139;28;20120;-65
2021/06/13 05:20:13;;;;;;;5.85;3.67;;;;;;;24.60;53.83;99641.84;5023435;28;20025;-65
2021/06/13 05:23:03;;;;;;;5.68;3.47;;;;;;;24.67;53.79;99634.34;5023026;28;20029;-65
2021/06/13 05:25:32;;;;;;;7.53;3.40;;;;;;;25.12;53.66;99638.56;5023121;28;20200;-65
2021/06/13 05:27:58;;;;;;;17.05;4.18;;;;;;;25.27;52.76;99635.16;5023030;28;20304;-65
2021/06/13 05:30:26;;;;;;;9.35;4.25;;;;;;;25.54;53.57;99641.28;5023066;28;20406;-65
2021/06/13 05:32:52;;;;;;;8.07;3.70;;;;;;;25.79;52.40;99637.91;5017113;28;20045;-65
2021/06/13 05:35:18;;;;;;;4.00;3.40;;;;;;;25.92;51.95;99626.56;5011265;28;20048;-65
2021/06/13 05:37:44;;;;;;;7.63;3.63;;;;;;;26.33;50.83;99626.75;5007019;28;20029;-66
2021/06/13 05:40:10;;;;;;;4.85;3.97;;;;;;;26.52;50.34;99627.88;5010968;28;20096;-65
2021/06/13 05:42:36;;;;;;;6.32;3.85;;;;;;;26.71;49.44;99626.28;5007592;28;20230;-66
2021/06/13 05:45:04;;;;;;;9.52;4.00;;;;;;;26.62;47.91;99632.50;5002001;28;20042;-65
2021/06/13 05:47:29;;;;;;;7.90;3.53;;;;;;;26.56;48.69;99625.44;5013245;28;20322;-65
2021/06/13 05:49:55;;;;;;;4.03;3.60;;;;;;;26.49;48.45;99622.16;5008315;28;20033;-65
2021/06/13 05:52:20;;;;;;;6.22;3.35;;;;;;;26.75;47.56;99623.81;5007862;28;20048;-66
2021/06/13 05:54:45;;;;;;;4.82;3.15;;;;;;;26.88;47.29;99625.19;5010753;28;20049;-65
2021/06/13 05:57:11;;;;;;;8.80;3.40;;;;;;;27.36;46.65;99632.00;5003354;28;20107;-65
2021/06/13 05:59:36;;;;;;;4.03;3.15;;;;;;;27.37;45.83;99622.75;5001990;28;20343;-66
2021/06/13 06:02:02;;;;;;;6.80;3.47;;;;;;;27.28;44.92;99618.97;5002465;28;20034;-65
2021/06/13 06:04:27;;;;;;;3.83;3.35;;;;;;;27.28;44.59;99618.97;5010123;28;20069;-66
2021/06/13 06:06:52;;;;;;;5.90;3.45;;;;;;;27.38;45.27;99615.41;5013963;28;20029;-65
2021/06/13 06:09:18;;;;;;;4.97;3.50;;;;;;;27.75;44.26;99607.69;5007565;28;20320;-66
2021/06/13 06:11:43;;;;;;;7.00;3.22;;;;;;;27.94;44.86;99605.16;5006210;28;20041;-65
2021/06/13 06:14:09;;;;;;;4.15;3.00;;;;;;;28.01;43.49;99610.31;5016425;28;20088;-65
2021/06/13 06:16:35;;;;;;;4.20;2.85;;;;;;;28.17;43.00;99604.53;5011967;28;20302;-66
2021/06/13 06:19:00;;;;;;;4.32;3.40;;;;;;;28.27;41.68;99601.78;5013721;28;20033;-65
2021/06/13 06:21:26;;;;;;;5.43;3.10;;;;;;;28.19;41.58;99596.09;5014099;28;20311;-66
2021/06/13 06:23:53;;;;;;;6.03;3.35;;;;;;;28.10;41.50;99589.59;5005964;28;20041;-65
2021/06/13 06:26:18;;;;;;;6.95;3.13;;;;;;;28.46;40.96;99592.94;5012866;28;20093;-66
2021/06/13 06:28:44;;;;;;;4.25;2.72;;;;;;;28.84;41.68;99589.41;5015122;28;20064;-65
2021/06/13 06:31:11;;;;;;;6.38;3.20;;;;;;;29.11;40.70;99596.25;5005897;28;20026;-66
2021/06/13 06:33:37;;;;;;;3.53;2.60;;;;;;;29.20;38.88;99589.09;5015194;28;20049;-66
2021/06/13 06:36:03;;;;;;;10.00;2.97;;;;;;;29.15;39.24;99589.94;5020922;28;20073;-65
2021/06/13 06:38:29;;;;;;;5.35;3.00;;;;;;;29.06;39.67;99594.38;5008913;28;20029;-66
2021/06/13 06:40:54;;;;;;;4.65;3.28;;;;;;;29.40;39.54;99591.59;5006916;28;20021;-66
2021/06/13 06:43:20;;;;;;;5.43;2.85;;;;;;;29.45;38.29;99588.84;5010813;28;20053;-66
2021/06/13 06:45:45;;;;;;;6.97;3.33;;;;;;;29.52;38.35;99589.31;5015923;28;20319;-66
2021/06/13 06:48:10;;;;;;;5.50;2.85;;;;;;;30.24;37.96;99580.25;5007117;28;20050;-66
2021/06/13 06:50:36;;;;;;;6.85;3.42;;;;;;;30.04;38.04;99573.13;5006346;28;20022;-66
2021/06/13 06:53:01;;;;;;;3.75;3.17;;;;;;;30.41;37.17;99572.34;5013431;28;20038;-66
2021/06/13 06:55:27;;;;;;;5.25;3.38;;;;;;;30.32;38.08;99574.94;5007957;28;20042;-66
2021/06/13 06:57:52;;;;;;;3.08;2.85;;;;;;;30.44;37.00;99564.34;5011343;28;20025;-66
2021/06/13 07:00:18;;;;;;;3.13;2.83;;;;;;;30.26;37.85;99567.09;5006520;28;20029;-66
2021/06/13 07:02:44;;;;;;;4.72;3.10;;;;;;;30.20;38.51;99560.91;5009953;28;20547;-66
2021/06/13 07:05:11;;;;;;;3.85;3.08;;;;;;;30.64;37.50;99546.03;5009338;28;20030;-66
2021/06/13 07:07:36;;;;;;;3.00;2.70;;;;;;;30.94;37.45;99544.69;5010095;28;20037;-66
2021/06/13 07:10:04;;;;;;;5.22;2.92;;;;;;;31.55;36.97;99544.38;5006737;28;20042;-66
2021/06/13 07:12:30;;;;;;;9.07;2.90;;;;;;;31.64;34.71;99541.72;5015828;28;20041;-65
2021/06/13 07:14:56;;;;;;;5.55;2.95;;;;;;;31.36;35.33;99538.19;5010047;28;20105;-66
2021/06/13 07:17:22;;;;;;;3.28;2.90;;;;;;;31.35;36.18;99531.09;5014560;28;20030;-66
2021/06/13 07:19:47;;;;;;;4.50;3.15;;;;;;;31.68;35.77;99540.81;5020791;28;20041;-66
2021/06/13 07:22:13;;;;;;;7.68;3.35;;;;;;;31.70;35.08;99533.13;5021253;28;20330;-66
2021/06/13 07:24:38;;;;;;;6.10;3.05;;;;;;;31.87;34.90;99524.28;5007082;28;20033;-66
2021/06/13 07:27:04;;;;;;;7.95;3.10;;;;;;;31.76;35.22;99520.16;5001554;28;20049;-66
2021/06/13 07:29:29;;;;;;;7.75;3.38;;;;;;;31.85;35.14;99512.81;5001103;28;20030;-66
2021/06/13 07:31:55;;;;;;;4.65;3.35;;;;;;;32.06;34.89;99513.97;5015969;28;20235;-66
2021/06/13 07:34:20;;;;;;;8.27;3.70;;;;;;;32.00;35.79;99515.22;5005114;28;20354;-66
2021/06/13 07:36:46;;;;;;;6.22;3.10;;;;;;;31.66;35.80;99515.66;5004693;28;20080;-66
2021/06/13 07:39:11;;;;;;;4.22;3.47;;;;;;;31.43;36.04;99509.31;5010646;28;20072;-66
2021/06/13 07:41:37;;;;;;;9.38;3.22;;;;;;;31.62;35.45;99513.84;5010644;28;20018;-66
2021/06/13 07:44:03;;;;;;;6.72;3.00;;;;;;;30.75;37.42;99507.28;5005292;28;20044;-66
2021/06/13 07:46:28;;;;;;;5.32;3.03;;;;;;;30.76;37.30;99502.63;5016627;28;20401;-66
2021/06/13 07:48:54;;;;;;;5.80;3.35;;;;;;;30.72;37.79;99496.97;5012629;28;20109;-66
2021/06/13 07:51:20;;;;;;;4.13;3.40;;;;;;;30.47;37.86;99497.38;5012874;28;20038;-66
2021/06/13 07:53:45;;;;;;;5.13;3.55;;;;;;;30.47;38.09;99497.38;5012579;28;20042;-66
2021/06/13 07:56:12;;;;;;;4.68;3.20;;;;;;;30.60;38.80;99498.56;5003970;28;20022;-66
2021/06/13 07:58:38;;;;;;;10.10;3.40;;;;;;;30.72;36.85;99494.22;5003766;28;20244;-66
2021/06/13 08:01:03;;;;;;;10.80;3.58;;;;;;;31.16;36.34;99500.28;5015027;28;20053;-66
2021/06/13 08:03:29;;;;;;;6.47;3.30;;;;;;;30.86;36.66;99493.44;5010920;28;20038;-66
2021/06/13 08:05:54;;;;;;;4.57;3.30;;;;;;;31.29;36.28;99488.56;5023906;28;20038;-65
2021/06/13 08:08:19;;;;;;;8.43;3.50;;;;;;;31.27;36.12;99485.31;5023709;28;20033;-66
2021/06/13 08:10:45;;;;;;;5.38;3.25;;;;;;;31.67;35.70;99476.22;5013979;28;20196;-65
2021/06/13 08:13:12;;;;;;;3.45;2.72;;;;;;;32.21;35.29;99477.19;5014617;28;20080;-66
2021/06/13 08:15:39;;;;;;;8.48;3.58;;;;;;;32.72;34.61;99464.16;5012884;28;20089;-63
2021/06/13 08:18:04;;;;;;;6.82;3.05;;;;;;;32.74;33.63;99472.88;5008443;28;20033;-63
2021/06/13 08:20:30;;;;;;;3.75;2.85;;;;;;;32.80;33.48;99468.91;5008550;28;20030;-63
2021/06/13 08:22:55;;;;;;;6.10;2.80;;;;;;;32.50;33.04;99465.03;5006297;28;20026;-63
2021/06/13 08:25:21;;;;;;;3.97;2.75;;;;;;;32.05;33.58;99449.34;5008239;28;20022;-65
2021/06/13 08:27:47;;;;;;;6.47;4.00;;;;;;;31.98;34.62;99459.94;5004774;28;20270;-66
2021/06/13 08:30:15;;;;;;;8.18;3.38;;;;;;;31.90;34.36;99454.41;5002571;28;20300;-66
2021/06/13 08:32:40;;;;;;;3.80;3.38;;;;;;;31.96;34.47;99453.97;5006298;28;20030;-63
2021/06/13 08:35:07;;;;;;;3.70;3.10;;;;;;;32.23;34.15;99454.97;5006785;28;20041;-63
2021/06/13 08:37:33;;;;;;;6.45;3.30;;;;;;;31.89;33.79;99445.38;5008177;28;20053;-65
2021/06/13 08:39:59;;;;;;;4.63;2.65;;;;;;;32.04;32.40;99441.44;5005328;28;20041;-66
2021/06/13 08:42:25;;;;;;;9.88;2.75;;;;;;;32.39;33.50;99437.06;5005265;28;20026;-66
2021/06/13 08:44:53;;;;;;;3.85;2.63;;;;;;;32.52;32.07;99427.16;5019711;28;20331;-66
2021/06/13 08:47:19;;;;;;;3.47;2.60;;;;;;;32.37;32.50;99429.16;5022635;28;20259;-66
2021/06/13 08:49:46;;;;;;;9.25;2.45;;;;;;;32.50;32.68;99429.38;5016647;28;20034;-66
2021/06/13 08:52:12;;;;;;;5.85;2.55;;;;;;;32.92;32.30;99436.22;5008819;28;20038;-66
2021/06/13 08:54:39;;;;;;;6.50;3.45;;;;;;;32.99;32.36;99431.06;5004659;28;20295;-63
2021/06/13 08:57:05;;;;;;;6.60;2.78;;;;;;;33.11;31.43;99435.94;5017890;28;20033;-63
2021/06/13 08:59:31;;;;;;;5.40;2.63;;;;;;;32.58;31.24;99428.63;5008887;28;20045;-64
2021/06/13 09:01:57;;;;;;;4.15;3.08;;;;;;;32.03;32.37;99429.69;5005526;28;20239;-66
2021/06/13 09:04:23;;;;;;;3.13;2.83;;;;;;;31.78;33.09;99427.56;5008541;28;20238;-66
2021/06/13 09:06:50;;;;;;;6.28;2.63;;;;;;;31.92;34.24;99425.59;5005659;28;20030;-66
2021/06/13 09:09:24;;;;;;;3.05;2.58;;;;;;;31.64;32.70;99424.03;5008197;28;20026;-63
2021/06/13 09:11:58;;;;;;;6.75;2.65;;;;;;;31.13;33.94;99428.63;5012719;28;20327;-65
2021/06/13 09:14:24;;;;;;;6.80;3.00;;;;;;;31.14;33.86;99413.03;5021071;28;20318;-65
2021/06/13 09:16:49;;;;;;;6.38;3.13;;;;;;;31.23;33.97;99415.91;5004623;28;20030;-66
2021/06/13 09:19:15;;;;;;;5.10;3.20;;;;;;;31.08;33.85;99426.00;5005084;28;20030;-66
2021/06/13 09:21:42;;;;;;;4.75;2.65;;;;;;;30.97;33.99;99421.84;5006795;28;20026;-66
2021/06/13 09:24:18;;;;;;;5.28;2.53;;;;;;;31.11;33.73;99424.59;5004822;28;20038;-65
2021/06/13 09:26:44;;;;;;;6.15;2.72;;;;;;;30.61;33.66;99408.09;5010714;28;20042;-66
2021/06/13 09:29:09;;;;;;;5.07;2.97;;;;;;;30.06;35.29;99418.81;5011119;28;20053;-65
2021/06/13 09:31:37;;;;;;;8.10;2.85;;;;;;;29.91;36.78;99416.31;5015354;28;20018;-65
2021/06/13 09:34:03;;;;;;;8.90;3.38;;;;;;;30.06;36.52;99412.56;5014247;28;20113;-65
2021/06/13 09:36:30;;;;;;;4.95;3.22;;;;;;;29.75;38.06;99414.94;5012568;28;20357;-66
2021/06/13 09:39:01;;;;;;;5.45;3.35;;;;;;;30.01;37.34;99405.25;5013970;28;20037;-66
2021/06/13 09:41:27;;;;;;;11.57;3.60;;;;;;;29.98;36.85;99402.28;5013625;28;20052;-66
2021/06/13 09:43:55;;;;;;;8.07;3.22;;;;;;;30.12;36.52;99403.97;5009667;28;20231;-65
2021/06/13 09:46:32;;;;;;;7.43;3.10;;;;;;;30.22;37.15;99392.09;5015267;28;20046;-66
2021/06/13 09:49:05;;;;;;;4.13;3.22;;;;;;;29.96;36.72;99396.31;5015875;28;20026;-66
2021/06/13 09:51:35;;;;;;;4.30;3.20;;;;;;;29.96;36.60;99386.19;5016266;28;20030;-65
2021/06/13 09:54:05;;;;;;;6.25;3.58;;;;;;;30.41;37.53;99387.38;5014710;28;20495;-66
2021/06/13 09:56:35;;;;;;;6.50;3.80;;;;;;;30.18;36.58;99377.44;5013328;28;20041;-66
2021/06/13 09:59:06;;;;;;;6.22;3.22;;;;;;;30.32;35.47;99381.00;5015682;28;20061;-66
2021/06/13 10:01:49;;;;;;;5.88;3.90;;;;;;;30.38;35.84;99376.25;5016415;28;20335;-66
2021/06/13 10:04:17;;;;;;;6.53;3.20;;;;;;;30.33;33.42;99388.06;5014233;28;20036;-66
2021/06/13 10:06:46;;;;;;;5.65;4.25;;;;;;;29.86;35.19;99378.19;5015046;28;20381;-65
2021/06/13 10:09:11;;;;;;;11.77;3.75;;;;;;;29.57;36.31;99381.09;5015529;28;20030;-66
2021/06/13 10:11:37;;;;;;;10.65;5.55;;;;;;;29.05;39.00;99396.47;5011525;28;20350;-65
2021/06/13 10:14:10;;;;;;;6.78;3.42;;;;;;;29.08;38.98;99376.00;5016362;28;20037;-66
2021/06/13 10:16:36;;;;;;;11.05;3.90;;;;;;;29.16;39.71;99380.81;5015923;28;20031;-66
2021/06/13 10:19:07;;;;;;;8.55;3.78;;;;;;;29.12;40.43;99375.13;5014050;28;20477;-65
2021/06/13 10:21:55;;;;;;;6.93;4.78;;;;;;;29.21;40.32;99375.31;5015656;28;20055;-66
2021/06/13 10:24:22;;;;;;;6.70;3.38;;;;;;;29.01;39.64;99381.00;5020720;28;20116;-66
2021/06/13 10:27:06;;;;;;;4.25;3.10;;;;;;;28.85;40.00;99375.72;5017681;28;20101;-65
2021/06/13 10:29:33;;;;;;;5.88;3.58;;;;;;;28.93;39.76;99372.38;5020074;28;20030;-66
2021/06/13 10:32:01;;;;;;;11.40;4.55;;;;;;;28.75;39.93;99383.19;5013539;28;20321;-66
2021/06/13 10:34:28;;;;;;;14.63;3.55;;;;;;;28.39;42.56;99405.38;5019778;28;20042;-66
2021/06/13 10:36:56;;;;;;;9.20;3.42;;;;;;;27.79;46.54;99402.00;5021002;28;20045;-65
2021/06/13 10:39:23;;;;;;;6.93;3.38;;;;;;;27.09;49.47;99398.59;5021356;28;20109;-65
2021/06/13 10:41:49;;;;;;;10.48;4.20;;;;;;;26.56;51.59;99417.16;5015418;28;20022;-65
2021/06/13 10:44:17;;;;;;;10.10;4.28;;;;;;;26.05;53.15;99408.22;5018192;28;20109;-65
2021/06/13 10:47:09;;;;;;;9.35;4.28;;;;;;;25.94;54.16;99404.69;5005404;28;20034;-65
2021/06/13 10:49:36;;;;;;;11.02;5.18;;;;;;;25.46;56.19;99414.06;5002532;28;20046;-65
2021/06/13 10:52:20;;;;;;;11.73;4.88;;;;;;;25.10;58.40;99422.09;5002370;28;20034;-65
2021/06/13 10:54:48;;;;;;;6.28;4.40;;;;;;;24.93;60.19;99424.13;5002462;28;20069;-65
2021/06/13 10:57:14;;;;;;;11.10;4.47;;;;;;;24.66;61.35;99418.81;5004641;28;20116;-65
2021/06/13 10:59:42;;;;;;;12.27;4.43;;;;;;;24.16;62.50;99419.25;5002594;28;20070;-65
2021/06/13 11:02:14;;;;;;;9.18;4.30;;;;;;;23.94;62.95;99418.53;5001736;28;20034;-65
2021/06/13 11:05:01;;;;;;;6.95;4.13;;;;;;;23.85;64.11;99420.88;5002247;28;20133;-65
2021/06/13 11:07:27;;;;;;;6.40;4.15;;;;;;;24.09;62.54;99424.91;5004744;28;20038;-65
2021/06/13 11:10:12;;;;;;;7.63;4.15;;;;;;;24.16;61.68;99425.50;5005794;28;20093;-65
2021/06/13 11:12:57;;;;;;;5.97;3.40;;;;;;;24.47;61.46;99415.72;5005757;28;20089;-65
2021/06/13 11:15:22;;;;;;;5.70;3.50;;;;;;;24.77;59.24;99406.97;5005352;28;20352;-65
2021/06/13 11:17:56;;;;;;;7.38;3.50;;;;;;;25.16;59.69;99409.38;5006694;28;20030;-65
2021/06/13 11:20:36;;;;;;;10.32;3.60;;;;;;;25.55;55.77;99408.94;5005975;28;20089;-65
2021/06/13 11:23:06;;;;;;;5.03;2.72;;;;;;;25.90;53.14;99411.72;5006473;28;20030;-65
2021/06/13 11:25:36;;;;;;;6.07;3.50;;;;;;;26.05;54.98;99405.53;5005766;28;20378;-65
2021/06/13 11:28:27;;;;;;;5.72;2.80;;;;;;;26.53;49.97;99400.59;5006776;28;20215;-66
2021/06/13 11:31:08;;;;;;;2.70;2.50;;;;;;;26.74;46.02;99394.03;5005926;28;20080;-65
2021/06/13 11:33:37;;;;;;;3.38;2.58;;;;;;;26.87;45.44;99404.31;5005388;28;20323;-65